ARM weather

Armidale Airport
Armidale, New South Wales, Australia

Public forecast

Using degrees Celsius for public forecast. Weather courtesy of forecast.io.

METAR (pilot weather report)

Closest report is Tamworth Airport, 51.9 nm (96.1 km) SW. Retrieved 2019/04/19 03:30 UTC (25 minutes ago):

YSTW 190330Z AUTO 16011KT 080V170 9999 // NCD 28/11 Q1024 RF00.0/000.0

TAF (pilot weather forecast)

Forecast is more than 6 hours old.

Closest forecast is Tamworth Airport, 51.9 nm (96.1 km) SW. Retrieved 2019/04/18 18:36 UTC (9 hours ago):

TAF TAF YSTW 181703Z 1818/1912 13008KT CAVOK FM190600 11012KT CAVOK